Time;durP1;ratioP1;P1;durP2;ratioP2;P2;SDS_P1;SDS_P2;PMS_P1;PMS_P2;Temp;Humidity;BMP_temperature;BMP_pressure;BME280_temperature;BME280_humidity;BME280_pressure;Samples;Min_cycle;Max_cycle;Signal;HPM_P1;HPM_P2
2023/06/13 00:01:24;;;;;;;8.75;4.78;;;;;;;;;;5024398;28;20038;-56
2023/06/13 00:03:53;;;;;;;7.18;5.00;;;;;;;;;;5007664;28;20576;-55
2023/06/13 00:06:19;;;;;;;9.85;5.03;;;;;;;;;;5003329;28;20030;-56
2023/06/13 00:08:50;;;;;;;7.55;4.80;;;;;;;;;;5013025;28;20040;-56
2023/06/13 00:11:16;;;;;;;8.05;5.00;;;;;;;;;;5014276;28;20046;-55
2023/06/13 00:13:41;;;;;;;10.15;5.03;;;;;;;;;;5004075;28;20033;-54
2023/06/13 00:16:08;;;;;;;7.35;5.07;;;;;;;;;;4995382;28;20434;-54
2023/06/13 00:18:37;;;;;;;8.82;5.25;;;;;;;;;;5011616;28;20041;-56
2023/06/13 00:21:03;;;;;;;10.60;4.75;;;;;;;;;;4995630;28;20433;-53
2023/06/13 00:23:29;;;;;;;9.63;5.45;;;;;;;;;;5010465;28;20040;-56
2023/06/13 00:25:54;;;;;;;9.55;5.43;;;;;;;;;;5011986;28;20026;-52
2023/06/13 00:28:20;;;;;;;7.78;5.50;;;;;;;;;;5009372;28;20077;-56
2023/06/13 00:30:45;;;;;;;8.80;5.00;;;;;;;;;;5004683;28;20112;-56
2023/06/13 00:33:16;;;;;;;6.50;5.03;;;;;;;;;;5000322;28;20394;-53
2023/06/13 00:35:42;;;;;;;7.35;5.38;;;;;;;;;;4992051;28;20066;-57
2023/06/13 00:38:08;;;;;;;8.73;5.40;;;;;;;;;;5007650;28;20529;-55
2023/06/13 00:40:33;;;;;;;6.18;4.85;;;;;;;;;;5020960;28;20049;-57
2023/06/13 00:42:59;;;;;;;8.82;5.10;;;;;;;;;;5020344;28;20037;-53
2023/06/13 00:45:26;;;;;;;6.47;4.93;;;;;;;;;;5002647;28;20034;-56
2023/06/13 00:48:01;;;;;;;10.27;5.40;;;;;;;;;;5001184;28;20025;-56
2023/06/13 00:50:30;;;;;;;8.45;4.97;;;;;;;;;;5001334;28;20065;-56
2023/06/13 00:52:58;;;;;;;9.57;5.30;;;;;;;;;;4993299;28;20173;-56
2023/06/13 00:55:25;;;;;;;7.03;4.93;;;;;;;;;;5015022;28;20037;-57
2023/06/13 00:57:55;;;;;;;9.02;5.18;;;;;;;;;;5009512;28;20557;-53
2023/06/13 01:00:22;;;;;;;10.45;5.07;;;;;;;;;;5020476;28;20095;-53
2023/06/13 01:02:48;;;;;;;8.15;5.28;;;;;;;;;;5008602;28;20057;-56
2023/06/13 01:05:13;;;;;;;9.05;5.25;;;;;;;;;;5004791;28;20464;-56
2023/06/13 01:07:41;;;;;;;10.02;5.25;;;;;;;;;;4991577;28;20057;-56
2023/06/13 01:10:09;;;;;;;7.57;4.85;;;;;;;;;;5013171;28;20394;-56
2023/06/13 01:12:45;;;;;;;7.32;5.00;;;;;;;;;;5011364;28;20477;-57
2023/06/13 01:15:17;;;;;;;7.47;4.80;;;;;;;;;;5024006;28;20120;-54
2023/06/13 01:17:57;;;;;;;7.85;5.20;;;;;;;;;;5030894;28;20466;-53
2023/06/13 01:20:26;;;;;;;8.00;5.10;;;;;;;;;;5007260;28;20038;-56
2023/06/13 01:23:15;;;;;;;7.55;4.88;;;;;;;;;;5020648;28;20076;-57
2023/06/13 01:26:02;;;;;;;8.07;5.05;;;;;;;;;;5008175;28;20042;-55
2023/06/13 01:28:32;;;;;;;8.32;4.88;;;;;;;;;;4997807;28;20065;-56
2023/06/13 01:31:00;;;;;;;8.10;5.07;;;;;;;;;;5015247;28;20049;-54
2023/06/13 01:33:25;;;;;;;7.75;5.20;;;;;;;;;;5017616;28;20030;-55
2023/06/13 01:35:51;;;;;;;8.98;5.00;;;;;;;;;;4990652;28;20034;-56
2023/06/13 01:38:17;;;;;;;7.28;4.95;;;;;;;;;;4992069;28;20046;-55
2023/06/13 01:40:43;;;;;;;7.90;4.85;;;;;;;;;;5016192;28;20045;-56
2023/06/13 01:43:08;;;;;;;6.38;4.90;;;;;;;;;;5031416;28;20079;-54
2023/06/13 01:45:34;;;;;;;7.15;4.95;;;;;;;;;;5015896;28;20029;-57
2023/06/13 01:48:12;;;;;;;8.25;4.72;;;;;;;;;;5002640;28;20426;-56
2023/06/13 01:50:46;;;;;;;9.65;5.00;;;;;;;;;;5002926;28;20034;-57
2023/06/13 01:53:38;;;;;;;10.70;5.05;;;;;;;;;;4999984;28;20037;-55
2023/06/13 01:56:09;;;;;;;10.85;5.22;;;;;;;;;;5000830;28;20734;-56
2023/06/13 01:58:36;;;;;;;9.63;5.38;;;;;;;;;;5010725;28;20467;-59
2023/06/13 02:01:04;;;;;;;8.63;5.35;;;;;;;;;;5019551;28;20122;-55
2023/06/13 02:03:31;;;;;;;6.40;4.95;;;;;;;;;;5020531;28;20033;-54
2023/06/13 02:05:56;;;;;;;8.82;4.97;;;;;;;;;;4996262;28;20673;-54
2023/06/13 02:08:22;;;;;;;8.25;5.25;;;;;;;;;;5000845;28;20079;-55
2023/06/13 02:10:48;;;;;;;8.80;5.25;;;;;;;;;;5010632;28;20095;-55
2023/06/13 02:13:13;;;;;;;10.82;5.50;;;;;;;;;;5003694;28;20034;-57
2023/06/13 02:15:39;;;;;;;8.45;5.43;;;;;;;;;;4994354;28;20467;-56
2023/06/13 02:18:04;;;;;;;7.50;5.25;;;;;;;;;;4994581;28;20035;-55
2023/06/13 02:20:30;;;;;;;7.10;5.22;;;;;;;;;;5010153;28;20030;-56
2023/06/13 02:22:57;;;;;;;9.75;5.40;;;;;;;;;;4995415;28;20505;-55
2023/06/13 02:25:22;;;;;;;8.50;5.03;;;;;;;;;;5007878;28;20046;-54
2023/06/13 02:27:48;;;;;;;9.88;5.70;;;;;;;;;;5002152;28;20387;-57
2023/06/13 02:30:14;;;;;;;6.97;5.45;;;;;;;;;;4993795;28;20467;-57
2023/06/13 02:32:42;;;;;;;7.53;5.53;;;;;;;;;;5000442;28;20386;-56
2023/06/13 02:35:09;;;;;;;9.18;5.45;;;;;;;;;;5012977;28;20056;-54
2023/06/13 02:37:35;;;;;;;8.50;5.43;;;;;;;;;;5011638;28;20455;-55
2023/06/13 02:40:00;;;;;;;6.90;5.25;;;;;;;;;;4996740;28;20056;-55
2023/06/13 02:42:27;;;;;;;12.25;5.45;;;;;;;;;;4996190;28;20030;-54
2023/06/13 02:44:52;;;;;;;8.80;5.45;;;;;;;;;;4993166;28;20135;-54
2023/06/13 02:47:20;;;;;;;9.32;5.70;;;;;;;;;;4992891;28;20031;-57
2023/06/13 02:49:45;;;;;;;8.18;5.40;;;;;;;;;;4994874;28;20522;-55
2023/06/13 02:52:11;;;;;;;9.65;5.88;;;;;;;;;;5006817;28;20113;-50
2023/06/13 02:54:36;;;;;;;7.45;5.60;;;;;;;;;;4998010;28;20395;-56
2023/06/13 02:57:02;;;;;;;8.05;5.47;;;;;;;;;;5010998;28;20124;-55
2023/06/13 02:59:27;;;;;;;9.50;6.07;;;;;;;;;;5029939;28;20037;-55
2023/06/13 03:01:53;;;;;;;10.05;5.85;;;;;;;;;;5031196;28;20057;-51
2023/06/13 03:04:18;;;;;;;9.10;5.90;;;;;;;;;;5012236;28;20066;-50
2023/06/13 03:06:44;;;;;;;7.60;5.57;;;;;;;;;;5000695;28;20109;-54
2023/06/13 03:09:10;;;;;;;8.35;6.05;;;;;;;;;;4997739;28;20093;-56
2023/06/13 03:11:36;;;;;;;7.57;6.13;;;;;;;;;;5007426;28;20022;-55
2023/06/13 03:14:02;;;;;;;9.50;6.28;;;;;;;;;;5002966;28;20502;-54
2023/06/13 03:16:28;;;;;;;11.63;6.20;;;;;;;;;;5005754;28;20038;-55
2023/06/13 03:18:54;;;;;;;11.00;6.38;;;;;;;;;;5008422;28;20390;-54
2023/06/13 03:21:20;;;;;;;8.93;6.25;;;;;;;;;;5010763;28;20076;-55
2023/06/13 03:23:46;;;;;;;9.20;6.07;;;;;;;;;;5015298;28;20038;-55
2023/06/13 03:26:12;;;;;;;7.43;5.85;;;;;;;;;;5022308;28;20087;-55
2023/06/13 03:28:37;;;;;;;7.57;5.97;;;;;;;;;;5002153;28;20026;-57
2023/06/13 03:31:04;;;;;;;9.90;6.40;;;;;;;;;;4992191;28;20027;-54
2023/06/13 03:33:29;;;;;;;8.13;6.10;;;;;;;;;;4992997;28;20471;-52
2023/06/13 03:35:55;;;;;;;10.18;6.63;;;;;;;;;;5007294;28;20064;-54
2023/06/13 03:38:20;;;;;;;11.30;6.47;;;;;;;;;;5008068;28;20093;-54
2023/06/13 03:40:46;;;;;;;8.85;6.30;;;;;;;;;;4966459;28;1143703;-54
2023/06/13 03:43:11;;;;;;;10.98;6.30;;;;;;;;;;5002084;28;20038;-55
2023/06/13 03:45:37;;;;;;;10.05;6.30;;;;;;;;;;5013537;28;20048;-53
2023/06/13 03:48:02;;;;;;;9.57;6.60;;;;;;;;;;5020083;28;20026;-51
2023/06/13 03:50:28;;;;;;;8.43;6.18;;;;;;;;;;4991922;28;20564;-57
2023/06/13 03:52:53;;;;;;;11.23;6.47;;;;;;;;;;5009678;28;20045;-56
2023/06/13 03:55:19;;;;;;;8.90;5.90;;;;;;;;;;5007996;28;20164;-52
2023/06/13 03:57:44;;;;;;;10.05;6.28;;;;;;;;;;4997835;28;20026;-57
2023/06/13 04:00:12;;;;;;;10.07;6.47;;;;;;;;;;5012864;28;20080;-53
2023/06/13 04:02:38;;;;;;;8.40;5.65;;;;;;;;;;5009968;28;20030;-53
2023/06/13 04:05:05;;;;;;;8.75;6.07;;;;;;;;;;5004174;28;20021;-56
2023/06/13 04:07:33;;;;;;;8.32;5.97;;;;;;;;;;4993496;28;20049;-57
2023/06/13 04:10:00;;;;;;;7.78;6.07;;;;;;;;;;4996153;28;20034;-56
2023/06/13 04:12:25;;;;;;;8.45;6.13;;;;;;;;;;5011451;28;20037;-54
2023/06/13 04:14:51;;;;;;;8.82;6.22;;;;;;;;;;5011365;28;20033;-57
2023/06/13 04:17:16;;;;;;;9.88;6.40;;;;;;;;;;5011417;28;20068;-57
2023/06/13 04:19:42;;;;;;;10.38;6.13;;;;;;;;;;5007527;28;20037;-57
2023/06/13 04:22:07;;;;;;;8.73;6.20;;;;;;;;;;4994432;28;20046;-57
2023/06/13 04:24:33;;;;;;;8.43;5.82;;;;;;;;;;5013419;28;20034;-57
2023/06/13 04:26:58;;;;;;;9.10;5.80;;;;;;;;;;5005513;28;20038;-57
2023/06/13 04:29:25;;;;;;;10.95;6.22;;;;;;;;;;4998237;28;20387;-56
2023/06/13 04:31:50;;;;;;;9.32;6.00;;;;;;;;;;4991476;28;20050;-55
2023/06/13 04:34:18;;;;;;;8.73;6.38;;;;;;;;;;5010632;28;20033;-56
2023/06/13 04:36:44;;;;;;;8.15;6.22;;;;;;;;;;5018996;28;20041;-53
2023/06/13 04:39:10;;;;;;;8.82;5.88;;;;;;;;;;5022258;28;20561;-55
2023/06/13 04:41:37;;;;;;;8.48;6.32;;;;;;;;;;5013107;28;20099;-58
2023/06/13 04:44:09;;;;;;;9.38;6.25;;;;;;;;;;5005115;28;20471;-55
2023/06/13 04:46:35;;;;;;;10.57;6.70;;;;;;;;;;4999808;28;20038;-56
2023/06/13 04:49:04;;;;;;;9.93;5.93;;;;;;;;;;4991322;28;20030;-55
2023/06/13 04:51:30;;;;;;;8.55;6.22;;;;;;;;;;5007548;28;20041;-54
2023/06/13 04:53:59;;;;;;;10.73;6.38;;;;;;;;;;5007454;28;20033;-57
2023/06/13 04:56:28;;;;;;;8.73;6.43;;;;;;;;;;5020249;28;20445;-56
2023/06/13 04:58:55;;;;;;;10.90;6.35;;;;;;;;;;5008856;28;20045;-57
2023/06/13 05:01:21;;;;;;;9.32;6.40;;;;;;;;;;5010591;28;20471;-57
2023/06/13 05:03:51;;;;;;;9.93;6.20;;;;;;;;;;5007445;28;20045;-58
2023/06/13 05:06:17;;;;;;;9.25;6.43;;;;;;;;;;5012335;28;20034;-55
2023/06/13 05:08:42;;;;;;;10.93;6.40;;;;;;;;;;5013211;28;20097;-54
2023/06/13 05:11:08;;;;;;;9.02;6.10;;;;;;;;;;5006646;28;20033;-55
2023/06/13 05:13:33;;;;;;;10.32;6.72;;;;;;;;;;5003251;28;20021;-55
2023/06/13 05:15:59;;;;;;;10.68;6.10;;;;;;;;;;5021966;28;20545;-56
2023/06/13 05:18:29;;;;;;;9.40;6.07;;;;;;;;;;4998958;28;20026;-57
2023/06/13 05:20:58;;;;;;;11.27;6.20;;;;;;;;;;5000704;28;20069;-53
2023/06/13 05:23:24;;;;;;;10.57;6.90;;;;;;;;;;5007175;28;20033;-56
2023/06/13 05:25:50;;;;;;;9.07;6.32;;;;;;;;;;5004706;28;20030;-57
2023/06/13 05:28:16;;;;;;;10.57;6.70;;;;;;;;;;5008665;28;20383;-57
2023/06/13 05:30:42;;;;;;;10.00;6.55;;;;;;;;;;4999434;28;20386;-52
2023/06/13 05:33:08;;;;;;;8.70;6.45;;;;;;;;;;5005274;28;20133;-56
2023/06/13 05:35:33;;;;;;;10.77;6.30;;;;;;;;;;5001540;28;20537;-58
2023/06/13 05:37:59;;;;;;;8.65;5.90;;;;;;;;;;5008493;28;20029;-56
2023/06/13 05:40:24;;;;;;;9.13;6.25;;;;;;;;;;5021965;28;20061;-53
2023/06/13 05:42:50;;;;;;;12.05;6.60;;;;;;;;;;5011312;28;20057;-58
2023/06/13 05:45:15;;;;;;;9.38;6.07;;;;;;;;;;5014217;28;20033;-59
2023/06/13 05:47:41;;;;;;;9.70;6.03;;;;;;;;;;5012978;28;20181;-59
2023/06/13 05:50:06;;;;;;;9.10;6.30;;;;;;;;;;5024495;28;20025;-56
2023/06/13 05:52:32;;;;;;;11.43;6.30;;;;;;;;;;5007466;28;20097;-55
2023/06/13 05:54:59;;;;;;;10.13;6.10;;;;;;;;;;4991404;28;20061;-59
2023/06/13 05:57:36;;;;;;;10.38;6.47;;;;;;;;;;5000655;28;20040;-59
2023/06/13 06:00:02;;;;;;;15.68;7.00;;;;;;;;;;5009060;28;20045;-59
2023/06/13 06:02:27;;;;;;;9.45;6.15;;;;;;;;;;5022576;28;20041;-59
2023/06/13 06:04:55;;;;;;;12.63;6.50;;;;;;;;;;5030234;28;20028;-55
2023/06/13 06:07:20;;;;;;;9.77;6.03;;;;;;;;;;5011972;28;20038;-58
2023/06/13 06:09:45;;;;;;;10.38;6.10;;;;;;;;;;5006764;28;20041;-60
2023/06/13 06:12:11;;;;;;;12.07;6.40;;;;;;;;;;5015979;28;20607;-59
2023/06/13 06:14:36;;;;;;;9.85;6.22;;;;;;;;;;5029512;28;20114;-56
2023/06/13 06:17:02;;;;;;;8.27;6.22;;;;;;;;;;5012915;28;20057;-60
2023/06/13 06:19:27;;;;;;;9.77;6.10;;;;;;;;;;4991602;28;20450;-59
2023/06/13 06:21:53;;;;;;;15.07;6.50;;;;;;;;;;5010319;28;20037;-59
2023/06/13 06:24:18;;;;;;;14.05;6.70;;;;;;;;;;5031040;28;20075;-60
2023/06/13 06:26:43;;;;;;;11.70;6.65;;;;;;;;;;5012481;28;20052;-59
2023/06/13 06:29:09;;;;;;;17.23;6.68;;;;;;;;;;4997643;28;20182;-58
2023/06/13 06:31:34;;;;;;;9.30;6.53;;;;;;;;;;5014420;28;20029;-58
2023/06/13 06:34:00;;;;;;;11.45;6.32;;;;;;;;;;5016967;28;20108;-58
2023/06/13 06:36:25;;;;;;;12.82;6.68;;;;;;;;;;5011257;28;20030;-57
2023/06/13 06:38:51;;;;;;;9.85;6.80;;;;;;;;;;5014213;28;20034;-59
2023/06/13 06:41:16;;;;;;;15.32;6.68;;;;;;;;;;5010969;28;20068;-59
2023/06/13 06:43:42;;;;;;;11.13;6.65;;;;;;;;;;5009116;28;20097;-58
2023/06/13 06:46:08;;;;;;;11.27;6.30;;;;;;;;;;5007401;28;20048;-58
2023/06/13 06:48:33;;;;;;;10.90;6.45;;;;;;;;;;5018534;28;20104;-60
2023/06/13 06:50:59;;;;;;;10.07;6.47;;;;;;;;;;5008847;28;20471;-57
2023/06/13 06:53:24;;;;;;;11.32;6.80;;;;;;;;;;5014355;28;20032;-58
2023/06/13 06:55:50;;;;;;;10.40;6.90;;;;;;;;;;5013901;28;20030;-59
2023/06/13 06:58:15;;;;;;;13.45;6.40;;;;;;;;;;5013616;28;20521;-55
2023/06/13 07:00:41;;;;;;;12.68;6.50;;;;;;;;;;5016006;28;20046;-58
2023/06/13 07:03:07;;;;;;;11.70;6.18;;;;;;;;;;5023460;28;20033;-56
2023/06/13 07:05:32;;;;;;;8.63;5.78;;;;;;;;;;5022050;28;20034;-57
2023/06/13 07:07:58;;;;;;;10.73;5.88;;;;;;;;;;5010262;28;20046;-56
2023/06/13 07:10:25;;;;;;;7.88;5.68;;;;;;;;;;5022724;28;20033;-59
2023/06/13 07:12:50;;;;;;;8.70;5.70;;;;;;;;;;5013247;28;20149;-58
2023/06/13 07:15:16;;;;;;;9.65;5.55;;;;;;;;;;5013984;28;20121;-57
2023/06/13 07:17:41;;;;;;;8.90;5.70;;;;;;;;;;5010360;28;20030;-57
2023/06/13 07:20:11;;;;;;;10.38;5.72;;;;;;;;;;5015673;28;20049;-58
2023/06/13 07:22:37;;;;;;;10.10;5.38;;;;;;;;;;5012604;28;20064;-59
2023/06/13 07:25:03;;;;;;;8.85;5.18;;;;;;;;;;5012900;28;20449;-56
2023/06/13 07:27:29;;;;;;;8.95;5.30;;;;;;;;;;5012606;28;20037;-56
2023/06/13 07:29:54;;;;;;;8.13;4.88;;;;;;;;;;4999952;28;20458;-57
2023/06/13 07:32:20;;;;;;;8.15;5.15;;;;;;;;;;5011215;28;20061;-54
2023/06/13 07:34:45;;;;;;;8.23;5.05;;;;;;;;;;4998771;28;20065;-57
2023/06/13 07:37:11;;;;;;;10.95;5.05;;;;;;;;;;5005825;28;20384;-59
2023/06/13 07:39:36;;;;;;;7.85;5.03;;;;;;;;;;5016444;28;20049;-57
2023/06/13 07:42:02;;;;;;;7.40;5.20;;;;;;;;;;5003162;28;20038;-58
2023/06/13 07:44:27;;;;;;;7.65;4.82;;;;;;;;;;4992735;28;20038;-58
2023/06/13 07:46:53;;;;;;;12.70;5.00;;;;;;;;;;5007674;28;20105;-57
2023/06/13 07:49:18;;;;;;;10.80;4.60;;;;;;;;;;5017436;28;20082;-53
2023/06/13 07:51:43;;;;;;;7.43;4.45;;;;;;;;;;5019660;28;20030;-58
2023/06/13 07:54:09;;;;;;;5.78;4.47;;;;;;;;;;5009092;28;20723;-58
2023/06/13 07:56:34;;;;;;;7.95;4.45;;;;;;;;;;5012279;28;20157;-58
2023/06/13 07:59:00;;;;;;;13.55;4.68;;;;;;;;;;5000108;28;20033;-58
2023/06/13 08:01:26;;;;;;;9.43;4.47;;;;;;;;;;5014256;28;20037;-56
2023/06/13 08:03:51;;;;;;;7.65;4.85;;;;;;;;;;5012405;28;20037;-59
2023/06/13 08:06:16;;;;;;;8.57;4.55;;;;;;;;;;5011931;28;20515;-58
2023/06/13 08:08:42;;;;;;;12.43;5.28;;;;;;;;;;5007835;28;20037;-58
2023/06/13 08:11:07;;;;;;;6.22;4.65;;;;;;;;;;5010169;28;20217;-59
2023/06/13 08:13:33;;;;;;;10.50;4.55;;;;;;;;;;5011970;28;20474;-58
2023/06/13 08:15:58;;;;;;;7.15;4.70;;;;;;;;;;5011507;28;20041;-59
2023/06/13 08:18:23;;;;;;;7.93;4.60;;;;;;;;;;5012940;28;20092;-58
2023/06/13 08:20:49;;;;;;;8.77;4.90;;;;;;;;;;5028464;28;20128;-58
2023/06/13 08:23:14;;;;;;;6.82;5.00;;;;;;;;;;5018013;28;20642;-57
2023/06/13 08:25:41;;;;;;;7.18;4.60;;;;;;;;;;5022497;28;20033;-59
2023/06/13 08:28:07;;;;;;;9.90;5.00;;;;;;;;;;5009697;28;20038;-57
2023/06/13 08:30:33;;;;;;;10.55;4.50;;;;;;;;;;5012254;28;20116;-57
2023/06/13 08:33:02;;;;;;;9.07;4.55;;;;;;;;;;5011751;28;20037;-58
2023/06/13 08:35:28;;;;;;;7.35;4.35;;;;;;;;;;5012734;28;20061;-57
2023/06/13 08:37:54;;;;;;;9.07;4.50;;;;;;;;;;5012242;28;20034;-58
2023/06/13 08:40:19;;;;;;;9.00;4.35;;;;;;;;;;5021594;28;20083;-56
2023/06/13 08:42:45;;;;;;;7.25;4.45;;;;;;;;;;5009895;28;20051;-55
2023/06/13 08:45:11;;;;;;;6.53;4.80;;;;;;;;;;5005169;28;20037;-55
2023/06/13 08:47:38;;;;;;;7.25;4.75;;;;;;;;;;5010618;28;20102;-58
2023/06/13 08:50:04;;;;;;;5.15;4.32;;;;;;;;;;5006997;28;20479;-58
2023/06/13 08:52:31;;;;;;;7.05;4.60;;;;;;;;;;5010823;28;20491;-58
2023/06/13 08:54:59;;;;;;;8.65;4.70;;;;;;;;;;5003098;28;20117;-58
2023/06/13 08:57:27;;;;;;;8.75;4.40;;;;;;;;;;5009326;28;20115;-59
2023/06/13 08:59:53;;;;;;;7.55;4.30;;;;;;;;;;5011841;28;20534;-59
2023/06/13 09:02:24;;;;;;;8.60;4.35;;;;;;;;;;5011227;28;20126;-59
2023/06/13 09:04:51;;;;;;;5.97;4.28;;;;;;;;;;5019370;28;20108;-58
2023/06/13 09:07:16;;;;;;;7.25;4.60;;;;;;;;;;5022379;28;20185;-58
2023/06/13 09:09:43;;;;;;;6.47;4.35;;;;;;;;;;5010672;28;20594;-58
2023/06/13 09:12:11;;;;;;;10.52;4.75;;;;;;;;;;5000376;28;20038;-56
2023/06/13 09:14:38;;;;;;;8.80;4.85;;;;;;;;;;5012087;28;20540;-56
2023/06/13 09:17:04;;;;;;;6.78;4.50;;;;;;;;;;5007036;28;20037;-57
2023/06/13 09:19:30;;;;;;;8.77;4.75;;;;;;;;;;5004487;28;20041;-58
2023/06/13 09:21:56;;;;;;;7.93;4.80;;;;;;;;;;5017767;28;20030;-55
2023/06/13 09:24:23;;;;;;;9.57;4.47;;;;;;;;;;5011436;28;20030;-58
2023/06/13 09:26:49;;;;;;;10.40;4.78;;;;;;;;;;5011548;28;20092;-57
2023/06/13 09:29:15;;;;;;;5.40;4.18;;;;;;;;;;5015123;28;20033;-58
2023/06/13 09:31:41;;;;;;;8.05;4.57;;;;;;;;;;5028817;28;20041;-55
2023/06/13 09:34:07;;;;;;;9.80;4.43;;;;;;;;;;5002817;28;20110;-60
2023/06/13 09:36:35;;;;;;;7.60;4.43;;;;;;;;;;4992938;28;20034;-59
2023/06/13 09:39:03;;;;;;;8.07;4.45;;;;;;;;;;5009987;28;20070;-59
2023/06/13 09:41:31;;;;;;;12.93;4.75;;;;;;;;;;5001293;28;20469;-62
2023/06/13 09:44:01;;;;;;;6.82;4.50;;;;;;;;;;4997588;28;20530;-58
2023/06/13 09:46:27;;;;;;;6.53;4.35;;;;;;;;;;4992409;28;20034;-58
2023/06/13 09:48:53;;;;;;;6.47;4.50;;;;;;;;;;5006862;28;20073;-58
2023/06/13 09:51:20;;;;;;;6.88;4.40;;;;;;;;;;5008776;28;20309;-58
2023/06/13 09:53:47;;;;;;;8.95;4.53;;;;;;;;;;5015990;28;20527;-54
2023/06/13 09:56:12;;;;;;;6.47;4.57;;;;;;;;;;5017289;28;20044;-56
2023/06/13 09:58:38;;;;;;;6.55;4.40;;;;;;;;;;5014107;28;20038;-57
2023/06/13 10:01:04;;;;;;;8.57;4.45;;;;;;;;;;5027142;28;20072;-59
2023/06/13 10:03:30;;;;;;;8.70;4.38;;;;;;;;;;5017756;28;20378;-58
2023/06/13 10:06:00;;;;;;;6.70;4.07;;;;;;;;;;5031247;28;20132;-58
2023/06/13 10:08:26;;;;;;;5.20;3.92;;;;;;;;;;5005757;28;20386;-59
2023/06/13 10:10:54;;;;;;;8.20;4.60;;;;;;;;;;5023295;28;20045;-57
2023/06/13 10:13:26;;;;;;;7.70;4.68;;;;;;;;;;5017694;28;20033;-58
2023/06/13 10:15:55;;;;;;;8.73;4.68;;;;;;;;;;5015321;28;20132;-57
2023/06/13 10:18:24;;;;;;;8.25;4.60;;;;;;;;;;5018991;28;20037;-59
2023/06/13 10:20:50;;;;;;;6.10;4.40;;;;;;;;;;5034327;28;20037;-60
2023/06/13 10:23:19;;;;;;;10.48;4.38;;;;;;;;;;5020397;28;20124;-58
2023/06/13 10:25:50;;;;;;;5.33;4.17;;;;;;;;;;5009450;28;20085;-58
2023/06/13 10:28:53;;;;;;;8.75;4.72;;;;;;;;;;5016274;28;20026;-58
2023/06/13 10:31:52;;;;;;;12.52;4.18;;;;;;;;;;5014557;28;20049;-50
2023/06/13 10:34:44;;;;;;;5.78;4.22;;;;;;;;;;4994511;28;20030;-53
2023/06/13 10:37:41;;;;;;;9.50;4.10;;;;;;;;;;5004608;28;20073;-54
2023/06/13 10:40:34;;;;;;;8.60;4.10;;;;;;;;;;5015696;28;20050;-59
2023/06/13 10:43:07;;;;;;;9.45;4.20;;;;;;;;;;5012570;28;20037;-59
2023/06/13 10:45:35;;;;;;;6.28;4.22;;;;;;;;;;5034659;28;20029;-59
2023/06/13 10:48:06;;;;;;;6.32;4.00;;;;;;;;;;5024952;28;20095;-59
2023/06/13 10:50:37;;;;;;;7.68;4.00;;;;;;;;;;5017912;28;20034;-61
2023/06/13 10:53:03;;;;;;;7.35;4.38;;;;;;;;;;5012184;28;20037;-59
2023/06/13 10:55:31;;;;;;;5.68;4.30;;;;;;;;;;5012145;28;20151;-60
2023/06/13 10:57:59;;;;;;;6.85;4.05;;;;;;;;;;5003475;28;20034;-60
2023/06/13 11:00:29;;;;;;;7.25;4.20;;;;;;;;;;4995148;28;20125;-60
2023/06/13 11:03:04;;;;;;;8.73;4.28;;;;;;;;;;5001413;28;20034;-60
2023/06/13 11:05:33;;;;;;;10.77;4.30;;;;;;;;;;4994034;28;20042;-59
2023/06/13 11:07:59;;;;;;;7.35;4.45;;;;;;;;;;5012311;28;20058;-60
2023/06/13 11:10:25;;;;;;;7.85;4.20;;;;;;;;;;4996448;28;20065;-60
2023/06/13 11:12:53;;;;;;;7.32;4.30;;;;;;;;;;4999989;28;20030;-60
2023/06/13 11:15:26;;;;;;;6.85;4.22;;;;;;;;;;5011474;28;20066;-60
2023/06/13 11:18:07;;;;;;;5.70;4.15;;;;;;;;;;5001867;28;20052;-59
2023/06/13 11:20:33;;;;;;;7.95;3.95;;;;;;;;;;5033545;28;20045;-60
2023/06/13 11:22:58;;;;;;;8.20;4.38;;;;;;;;;;5002105;28;20033;-59
2023/06/13 11:25:24;;;;;;;8.77;4.30;;;;;;;;;;5012934;28;20038;-59
2023/06/13 11:27:50;;;;;;;7.85;4.43;;;;;;;;;;5013101;28;20030;-60
2023/06/13 11:30:17;;;;;;;4.97;3.85;;;;;;;;;;5030418;28;20121;-60
2023/06/13 11:32:43;;;;;;;12.23;4.45;;;;;;;;;;5010418;28;20022;-60
2023/06/13 11:35:10;;;;;;;6.45;4.28;;;;;;;;;;5013368;28;20051;-60
2023/06/13 11:37:44;;;;;;;8.52;4.20;;;;;;;;;;5011874;28;20042;-59
2023/06/13 11:40:14;;;;;;;7.63;4.00;;;;;;;;;;5030109;28;20077;-61
2023/06/13 11:42:40;;;;;;;7.80;3.90;;;;;;;;;;5004101;28;20022;-60
2023/06/13 11:45:07;;;;;;;6.30;3.92;;;;;;;;;;4995435;28;20088;-60
2023/06/13 11:47:32;;;;;;;6.35;3.95;;;;;;;;;;5024318;28;20038;-60
2023/06/13 11:49:58;;;;;;;7.15;4.20;;;;;;;;;;5018441;28;20526;-60
2023/06/13 11:52:23;;;;;;;8.50;4.22;;;;;;;;;;4993248;28;20027;-59
2023/06/13 11:54:50;;;;;;;7.60;3.90;;;;;;;;;;5024233;28;20041;-60
2023/06/13 11:57:16;;;;;;;7.22;3.70;;;;;;;;;;5030767;28;20037;-59
2023/06/13 11:59:42;;;;;;;7.35;3.90;;;;;;;;;;5029976;28;20389;-60
2023/06/13 12:02:14;;;;;;;7.50;4.10;;;;;;;;;;5029380;28;20134;-61
2023/06/13 12:04:42;;;;;;;5.40;4.03;;;;;;;;;;5020449;28;20171;-61
2023/06/13 12:07:08;;;;;;;6.80;3.97;;;;;;;;;;5014031;28;20042;-61
2023/06/13 12:09:33;;;;;;;6.65;4.45;;;;;;;;;;5010259;28;20037;-61
2023/06/13 12:12:00;;;;;;;9.43;3.92;;;;;;;;;;5024217;28;20037;-61
2023/06/13 12:14:25;;;;;;;5.45;3.80;;;;;;;;;;5023469;28;20849;-60
2023/06/13 12:16:54;;;;;;;8.50;4.45;;;;;;;;;;5030598;28;20526;-60
2023/06/13 12:19:21;;;;;;;5.07;3.47;;;;;;;;;;5016796;28;20033;-60
2023/06/13 12:21:49;;;;;;;6.50;4.13;;;;;;;;;;5018174;28;20343;-60
2023/06/13 12:24:16;;;;;;;8.20;4.20;;;;;;;;;;5005509;28;20080;-60
2023/06/13 12:26:43;;;;;;;7.22;3.70;;;;;;;;;;5032642;28;20043;-61
2023/06/13 12:29:11;;;;;;;8.30;4.07;;;;;;;;;;5017927;28;20032;-61
2023/06/13 12:31:44;;;;;;;4.93;3.58;;;;;;;;;;5012144;28;20029;-60
2023/06/13 12:34:16;;;;;;;8.15;4.00;;;;;;;;;;5010033;28;20034;-60
2023/06/13 12:36:44;;;;;;;9.45;3.60;;;;;;;;;;5032213;28;20454;-60
2023/06/13 12:39:16;;;;;;;8.70;4.03;;;;;;;;;;5019088;28;20034;-60
2023/06/13 12:41:49;;;;;;;6.32;3.70;;;;;;;;;;4998884;28;20034;-61
2023/06/13 12:44:16;;;;;;;7.60;3.63;;;;;;;;;;5025179;28;20026;-60
2023/06/13 12:46:42;;;;;;;6.43;3.55;;;;;;;;;;5013845;28;20042;-61
2023/06/13 12:49:11;;;;;;;7.75;3.83;;;;;;;;;;5011444;28;20041;-61
2023/06/13 12:51:44;;;;;;;5.75;3.30;;;;;;;;;;4992908;28;20045;-60
2023/06/13 12:54:20;;;;;;;4.97;3.45;;;;;;;;;;5001414;28;20481;-60
2023/06/13 12:57:11;;;;;;;5.03;3.78;;;;;;;;;;5024271;28;20033;-61
2023/06/13 12:59:41;;;;;;;5.45;3.70;;;;;;;;;;5007718;28;20037;-60
2023/06/13 13:02:19;;;;;;;10.55;4.30;;;;;;;;;;4998364;28;20085;-60
2023/06/13 13:04:45;;;;;;;6.15;3.58;;;;;;;;;;5011088;28;20040;-60
2023/06/13 13:07:15;;;;;;;4.28;3.42;;;;;;;;;;5022825;28;20071;-60
2023/06/13 13:09:42;;;;;;;;;;;;;;;;;;5016161;28;20467;-62
2023/06/13 13:12:12;;;;;;;6.85;3.90;;;;;;;;;;5019486;28;19952;-60
2023/06/13 13:14:37;;;;;;;5.88;3.72;;;;;;;;;;5018848;28;20065;-60
2023/06/13 13:17:03;;;;;;;8.32;3.50;;;;;;;;;;5031881;28;20455;-61
2023/06/13 13:19:29;;;;;;;8.60;3.95;;;;;;;;;;5017382;28;20037;-61
2023/06/13 13:21:55;;;;;;;5.00;3.67;;;;;;;;;;4994335;28;20096;-61
2023/06/13 13:24:21;;;;;;;5.18;3.70;;;;;;;;;;5001046;28;20087;-60
2023/06/13 13:26:51;;;;;;;6.05;3.70;;;;;;;;;;5030395;28;20033;-61
2023/06/13 13:29:16;;;;;;;5.38;3.60;;;;;;;;;;5020133;28;20032;-62
2023/06/13 13:31:42;;;;;;;5.05;3.58;;;;;;;;;;5010073;28;20034;-61
2023/06/13 13:34:09;;;;;;;8.77;3.75;;;;;;;;;;5021938;28;20494;-61
2023/06/13 13:36:35;;;;;;;7.82;3.75;;;;;;;;;;5018990;28;20061;-61
2023/06/13 13:39:02;;;;;;;8.73;3.85;;;;;;;;;;5011421;28;20440;-62
2023/06/13 13:41:34;;;;;;;6.63;3.78;;;;;;;;;;5011844;28;20080;-61
2023/06/13 13:44:01;;;;;;;5.07;3.70;;;;;;;;;;5008588;28;20467;-61
2023/06/13 13:46:26;;;;;;;7.82;3.50;;;;;;;;;;5013952;28;20722;-60
2023/06/13 13:48:52;;;;;;;6.65;3.60;;;;;;;;;;5010913;28;20101;-61
2023/06/13 13:51:18;;;;;;;6.88;3.78;;;;;;;;;;5014735;28;20065;-60
2023/06/13 13:53:44;;;;;;;5.65;3.67;;;;;;;;;;5015633;28;20026;-60
2023/06/13 13:56:10;;;;;;;6.18;3.75;;;;;;;;;;5025285;28;20481;-60
2023/06/13 13:58:35;;;;;;;6.93;3.80;;;;;;;;;;5030580;28;20038;-60
2023/06/13 14:01:01;;;;;;;4.65;3.90;;;;;;;;;;5015613;28;20056;-60
2023/06/13 14:03:27;;;;;;;6.82;3.95;;;;;;;;;;5015462;28;20208;-61
2023/06/13 14:05:52;;;;;;;8.98;4.10;;;;;;;;;;5020053;28;20116;-60
2023/06/13 14:08:18;;;;;;;9.95;3.70;;;;;;;;;;5019421;28;20038;-62
2023/06/13 14:10:43;;;;;;;8.50;4.05;;;;;;;;;;5025484;28;20117;-60
2023/06/13 14:13:08;;;;;;;10.30;3.80;;;;;;;;;;5031767;28;20389;-60
2023/06/13 14:15:34;;;;;;;7.97;3.63;;;;;;;;;;5014494;28;20046;-63
2023/06/13 14:18:00;;;;;;;7.15;3.70;;;;;;;;;;5016518;28;20041;-59
2023/06/13 14:20:25;;;;;;;7.63;3.90;;;;;;;;;;5011322;28;20037;-60
2023/06/13 14:22:51;;;;;;;8.43;3.78;;;;;;;;;;4995988;28;20054;-60
2023/06/13 14:25:16;;;;;;;4.60;3.75;;;;;;;;;;5017338;28;20035;-60
2023/06/13 14:27:42;;;;;;;5.10;3.55;;;;;;;;;;5024479;28;20143;-60
2023/06/13 14:30:07;;;;;;;7.97;4.00;;;;;;;;;;5019320;28;20533;-62
2023/06/13 14:32:33;;;;;;;7.07;3.78;;;;;;;;;;5014089;28;20471;-61
2023/06/13 14:34:58;;;;;;;5.13;3.55;;;;;;;;;;5013940;28;20048;-60
2023/06/13 14:37:24;;;;;;;7.30;4.07;;;;;;;;;;5014164;28;20400;-61
2023/06/13 14:39:50;;;;;;;4.75;3.50;;;;;;;;;;5019577;28;20058;-61
2023/06/13 14:42:15;;;;;;;5.10;3.40;;;;;;;;;;5015522;28;20041;-59